Time;durP1;ratioP1;P1;durP2;ratioP2;P2;SDS_P1;SDS_P2;PMS_P1;PMS_P2;Temp;Humidity;BMP_temperature;BMP_pressure;BME280_temperature;BME280_humidity;BME280_pressure;Samples;Min_cycle;Max_cycle;Signal;HPM_P1;HPM_P2
2021/08/26 00:00:17;;;;;;;4.25;3.22;;;19.40;99.90;;;19.84;84.27;101720.66;5112889;28;20047;-70
2021/08/26 00:05:50;;;;;;;7.75;3.90;;;19.50;99.90;;;19.87;83.13;101715.22;5112811;28;20409;-70
2021/08/26 00:08:22;;;;;;;7.18;3.65;;;19.50;99.90;;;19.74;82.85;101713.84;5094926;28;20413;-70
2021/08/26 00:10:53;;;;;;;4.93;3.72;;;19.50;99.90;;;19.90;82.85;101712.44;5112786;28;20409;-70
2021/08/26 00:13:23;;;;;;;5.40;3.38;;;19.50;99.90;;;19.86;82.76;101699.16;5112800;28;20044;-70
2021/08/26 00:15:53;;;;;;;5.80;3.60;;;19.50;99.90;;;19.96;82.26;101698.84;5113022;28;20044;-70
2021/08/26 00:18:24;;;;;;;8.73;3.63;;;19.60;99.90;;;19.85;81.89;101684.84;5113000;28;20398;-69
2021/08/26 00:20:53;;;;;;;9.02;3.85;;;19.50;99.90;;;19.89;81.81;101682.94;5112677;28;20047;-69
2021/08/26 00:23:22;;;;;;;5.63;3.65;;;19.50;99.90;;;20.02;81.40;101687.91;5112613;28;20067;-69
2021/08/26 00:25:51;;;;;;;6.13;3.83;;;19.60;99.90;;;19.47;80.36;101589.31;5112835;28;20047;-69
2021/08/26 00:28:20;;;;;;;6.63;3.70;;;19.60;99.90;;;19.84;80.03;101672.34;5112470;28;20128;-69
2021/08/26 00:30:49;;;;;;;7.60;3.80;;;19.60;99.90;;;19.86;80.69;101694.66;5112830;28;20071;-69
2021/08/26 00:33:18;;;;;;;11.52;4.07;;;19.50;99.90;;;19.72;80.85;101684.31;5112782;28;20289;-70
2021/08/26 00:35:48;;;;;;;8.10;4.40;;;19.30;99.90;;;19.73;80.41;101688.78;5112566;28;20490;-69
2021/08/26 00:38:17;;;;;;;7.20;4.18;;;19.30;99.90;;;19.64;80.11;101667.56;5112541;28;20191;-69
2021/08/26 00:40:46;;;;;;;9.80;4.35;;;19.30;99.90;;;19.75;79.95;101672.63;5112736;28;20036;-69
2021/08/26 00:43:15;;;;;;;7.68;4.75;;;19.40;99.90;;;19.86;79.90;101681.22;5112600;28;20083;-69
2021/08/26 00:45:45;;;;;;;7.13;4.70;;;19.50;99.90;;;19.74;79.43;101673.56;5112296;28;20050;-69
2021/08/26 00:48:13;;;;;;;9.00;5.30;;;19.40;99.90;;;19.61;79.78;101675.69;5113105;28;20040;-69
2021/08/26 00:50:42;;;;;;;9.38;4.93;;;19.30;99.90;;;19.28;80.09;101665.00;5112313;28;20044;-70
2021/08/26 00:53:11;;;;;;;9.52;4.93;;;19.00;99.90;;;19.48;79.72;101658.19;5112327;28;20441;-69
2021/08/26 00:55:40;;;;;;;13.20;5.90;;;19.10;99.90;;;19.66;78.55;101664.84;5112425;28;20123;-69
2021/08/26 00:58:08;;;;;;;10.32;5.88;;;19.30;99.90;;;19.63;78.22;101656.84;5112599;28;20066;-69
2021/08/26 01:00:39;;;;;;;12.10;6.10;;;19.30;99.90;;;19.50;77.92;101621.44;5112257;28;20056;-69
2021/08/26 01:03:13;;;;;;;15.27;6.72;;;19.30;99.90;;;19.69;77.82;101667.41;5112350;28;20046;-70
2021/08/26 01:05:49;;;;;;;13.10;6.13;;;19.30;99.90;;;19.54;77.72;101630.28;5112178;28;20036;-69
2021/08/26 01:08:28;;;;;;;13.18;6.80;;;19.40;99.90;;;19.83;77.14;101661.66;5093949;28;20453;-69
2021/08/26 01:11:00;;;;;;;14.40;6.40;;;19.50;99.90;;;19.83;77.20;101667.00;5112786;28;20039;-69
2021/08/26 01:13:33;;;;;;;14.35;6.32;;;19.50;99.90;;;19.86;77.35;101658.88;5096384;28;20047;-69
2021/08/26 01:16:07;;;;;;;15.70;6.75;;;19.50;99.90;;;19.91;77.06;101657.81;5116004;28;20050;-69
2021/08/26 01:18:37;;;;;;;16.25;7.43;;;19.60;99.90;;;19.75;76.44;101651.13;5116499;28;20040;-69
2021/08/26 01:21:07;;;;;;;18.90;7.05;;;19.40;99.90;;;19.88;75.68;101647.16;5116107;28;20040;-69
2021/08/26 01:23:43;;;;;;;14.27;6.70;;;19.50;99.90;;;19.88;75.44;101646.28;5116167;28;20043;-69
2021/08/26 01:26:18;;;;;;;16.58;6.90;;;19.60;99.90;;;19.87;75.58;101649.88;5116069;28;20108;-69
2021/08/26 01:28:49;;;;;;;17.20;6.43;;;19.50;99.90;;;19.93;75.47;101655.97;5115734;28;20043;-69
2021/08/26 01:31:18;;;;;;;16.83;6.65;;;19.60;99.90;;;19.65;75.18;101625.47;5115781;28;20051;-69
2021/08/26 01:33:49;;;;;;;16.75;6.78;;;19.50;99.90;;;19.87;74.73;101642.72;5115827;28;20039;-69
2021/08/26 01:36:19;;;;;;;15.98;6.75;;;19.50;99.90;;;19.86;73.73;101649.00;5115954;28;20055;-70
2021/08/26 01:38:50;;;;;;;15.73;6.10;;;19.50;99.90;;;19.84;72.34;101647.31;5115675;28;20047;-70
2021/08/26 01:41:20;;;;;;;19.67;7.00;;;19.50;99.90;;;19.77;71.67;101642.13;5116763;28;20107;-70
2021/08/26 01:43:50;;;;;;;16.95;6.43;;;19.50;99.90;;;19.43;71.07;101635.97;5116393;28;20083;-70
2021/08/26 01:46:19;;;;;;;18.50;5.95;;;19.20;99.90;;;19.35;71.30;101629.94;5115972;28;20606;-70
2021/08/26 01:48:48;;;;;;;14.00;6.40;;;19.00;99.90;;;19.29;69.88;101623.84;5116002;28;20043;-70
2021/08/26 01:51:16;;;;;;;17.52;6.43;;;19.00;99.90;;;19.06;70.76;101616.44;5116177;28;20142;-69
2021/08/26 01:53:45;;;;;;;15.38;6.00;;;18.90;99.90;;;19.20;70.54;101618.72;5116115;28;20075;-70
2021/08/26 01:56:13;;;;;;;17.10;5.63;;;18.90;99.90;;;19.18;70.31;101618.75;5116122;28;20047;-70
2021/08/26 01:58:43;;;;;;;12.20;5.88;;;18.90;99.90;;;19.16;70.24;101617.06;5115730;28;20051;-70
2021/08/26 02:01:11;;;;;;;13.90;5.37;;;18.80;99.90;;;19.13;69.93;101626.06;5097781;28;20043;-70
2021/08/26 02:03:41;;;;;;;15.93;5.53;;;18.90;99.90;;;19.15;70.26;101631.38;5115693;28;20502;-70
2021/08/26 02:06:10;;;;;;;18.40;6.88;;;18.90;99.90;;;19.00;70.71;101624.63;5115524;28;20131;-70
2021/08/26 02:08:38;;;;;;;17.40;7.00;;;18.80;99.90;;;19.16;70.68;101627.78;5115780;28;20055;-70
2021/08/26 02:11:07;;;;;;;18.27;7.05;;;18.90;99.90;;;19.32;70.07;101629.09;5115553;28;20073;-70
2021/08/26 02:13:35;;;;;;;20.85;7.22;;;19.00;99.90;;;19.32;70.24;101624.66;5115464;28;20047;-70
2021/08/26 02:16:06;;;;;;;20.75;7.15;;;19.00;99.90;;;19.27;71.03;101617.63;5115415;28;20625;-70
2021/08/26 02:18:35;;;;;;;19.25;7.72;;;19.00;99.90;;;19.12;71.93;101610.91;5115754;28;20032;-69
2021/08/26 02:21:03;;;;;;;22.77;8.10;;;18.90;99.90;;;19.29;72.02;101619.34;5115291;28;20054;-70
2021/08/26 02:23:32;;;;;;;22.55;7.32;;;19.00;99.90;;;19.31;71.91;101627.34;5097039;28;20071;-70
2021/08/26 02:26:00;;;;;;;26.38;8.30;;;19.00;99.90;;;19.30;71.96;101622.91;5115147;28;20039;-70
2021/08/26 02:28:28;;;;;;;26.90;8.35;;;19.00;99.90;;;19.42;71.85;101619.91;5115225;28;20063;-70
2021/08/26 02:30:57;;;;;;;22.42;8.18;;;19.10;99.90;;;19.09;71.56;101594.88;5115190;28;20067;-70
2021/08/26 02:33:26;;;;;;;22.58;8.27;;;19.00;99.90;;;19.29;70.94;101616.66;5115076;28;20122;-70
2021/08/26 02:35:55;;;;;;;19.77;8.03;;;19.00;99.90;;;19.37;70.42;101616.47;5115395;28;20048;-70
2021/08/26 02:38:23;;;;;;;27.85;8.07;;;19.00;99.90;;;19.23;69.75;101614.16;5114954;28;20043;-70
2021/08/26 02:40:51;;;;;;;24.48;7.78;;;19.00;99.90;;;19.29;69.79;101613.09;5114979;28;20063;-70
2021/08/26 02:43:20;;;;;;;17.20;6.60;;;19.00;99.90;;;19.39;69.16;101623.56;5096655;28;20155;-70
2021/08/26 02:45:48;;;;;;;23.40;7.80;;;19.10;99.90;;;18.95;69.19;101613.13;5114803;28;20094;-70
2021/08/26 02:48:17;;;;;;;25.90;7.65;;;18.90;99.90;;;18.95;69.35;101605.09;5114740;28;20048;-70
2021/08/26 02:50:47;;;;;;;24.30;7.22;;;18.80;99.90;;;18.88;69.86;101607.06;5114769;28;20081;-70
2021/08/26 02:53:15;;;;;;;28.30;8.67;;;18.60;99.90;;;18.93;70.02;101605.13;5115308;28;20039;-70
2021/08/26 02:55:43;;;;;;;29.63;9.15;;;18.60;99.90;;;19.04;70.10;101612.91;5114607;28;20383;-70
2021/08/26 02:58:12;;;;;;;21.45;8.13;;;18.70;99.90;;;19.19;70.43;101619.63;5114859;28;20444;-70
2021/08/26 03:00:40;;;;;;;21.20;7.22;;;18.80;99.90;;;19.20;70.90;101613.38;5114787;28;20410;-70
2021/08/26 03:03:09;;;;;;;24.67;8.23;;;18.90;99.90;;;19.22;70.42;101611.53;5114547;28;20035;-70
2021/08/26 03:05:38;;;;;;;21.20;7.20;;;18.90;99.90;;;19.23;70.16;101621.31;5114667;28;20116;-70
2021/08/26 03:08:08;;;;;;;22.40;7.15;;;18.90;99.90;;;19.23;69.74;101627.56;5114601;28;20043;-70
2021/08/26 03:10:36;;;;;;;21.00;6.90;;;18.90;99.90;;;19.24;69.06;101620.41;5114973;28;20051;-70
2021/08/26 03:13:05;;;;;;;18.60;6.97;;;18.90;99.90;;;19.14;68.51;101614.41;5114198;28;20455;-70
2021/08/26 03:15:33;;;;;;;15.52;6.43;;;18.80;99.90;;;19.19;67.40;101611.59;5114325;28;20052;-70
2021/08/26 03:18:02;;;;;;;17.65;6.82;;;18.90;99.90;;;19.05;66.87;101576.25;5114171;28;20036;-70
2021/08/26 03:20:30;;;;;;;17.67;6.80;;;19.00;99.90;;;19.20;66.50;101618.72;5114448;28;20403;-70
2021/08/26 03:22:59;;;;;;;16.25;5.70;;;18.90;99.90;;;19.16;65.75;101622.41;5114171;28;20118;-70
2021/08/26 03:25:29;;;;;;;15.00;6.72;;;18.90;99.90;;;19.17;65.43;101621.47;5096110;28;20489;-70
2021/08/26 03:27:57;;;;;;;15.68;5.88;;;18.80;99.90;;;19.20;65.24;101618.72;5114002;28;20039;-69
2021/08/26 03:30:26;;;;;;;16.63;6.35;;;18.90;99.90;;;19.29;65.16;101616.66;5114344;28;20133;-69
2021/08/26 03:32:54;;;;;;;18.75;7.07;;;19.00;99.90;;;19.37;64.75;101608.44;5114145;28;20449;-70
2021/08/26 03:35:22;;;;;;;12.82;5.88;;;19.10;99.90;;;19.41;64.51;101610.09;5113760;28;20062;-70
2021/08/26 03:37:51;;;;;;;16.63;6.63;;;19.10;99.90;;;19.39;64.91;101603.91;5114505;28;20051;-70
2021/08/26 03:40:20;;;;;;;16.30;5.95;;;19.10;99.90;;;19.43;64.84;101609.16;5114473;28;20058;-70
2021/08/26 03:42:49;;;;;;;13.23;5.88;;;19.10;99.90;;;19.12;65.63;101601.97;5113745;28;20051;-70
2021/08/26 03:45:18;;;;;;;19.00;6.97;;;18.80;99.90;;;19.28;64.60;101606.00;5114128;28;20065;-70
2021/08/26 03:47:46;;;;;;;13.98;5.45;;;18.90;99.90;;;19.42;64.38;101607.38;5113647;28;20444;-70
2021/08/26 03:50:15;;;;;;;15.43;6.20;;;19.10;99.90;;;19.48;63.87;101604.50;5113695;28;20131;-70
2021/08/26 03:52:43;;;;;;;13.00;5.63;;;19.20;99.90;;;19.17;64.83;101606.28;5113685;28;20044;-70
2021/08/26 03:55:15;;;;;;;18.00;6.00;;;18.90;99.90;;;19.28;64.81;101612.22;5113644;28;20043;-69
2021/08/26 03:57:44;;;;;;;16.10;6.47;;;18.90;99.90;;;19.41;64.67;101604.75;5113654;28;20075;-70
2021/08/26 04:00:15;;;;;;;17.63;6.32;;;19.00;99.90;;;19.35;64.69;101602.22;5113571;28;20059;-69
2021/08/26 04:02:43;;;;;;;20.40;6.72;;;19.00;99.90;;;19.16;65.54;101606.31;5113656;28;20044;-69
2021/08/26 04:05:12;;;;;;;19.58;6.60;;;18.90;99.90;;;19.06;66.13;101604.81;5114059;28;20131;-70
2021/08/26 04:07:40;;;;;;;13.55;6.15;;;18.70;99.90;;;18.99;66.66;101597.88;5113658;28;20043;-70
2021/08/26 04:10:10;;;;;;;17.75;6.50;;;18.60;99.90;;;18.83;67.19;101592.91;5113414;28;20127;-70
2021/08/26 04:12:38;;;;;;;16.33;6.10;;;18.50;99.90;;;19.02;67.15;101606.69;5113722;28;20044;-70
2021/08/26 04:15:09;;;;;;;18.20;6.40;;;18.70;99.90;;;18.84;66.83;101599.13;5113945;28;20044;-70
2021/08/26 04:17:39;;;;;;;19.83;6.25;;;18.60;99.90;;;18.88;67.39;101601.72;5095734;28;20559;-70
2021/08/26 04:20:08;;;;;;;20.25;6.50;;;18.50;99.90;;;18.70;66.75;101548.56;5113614;28;20073;-70
2021/08/26 04:22:37;;;;;;;15.98;5.78;;;18.70;99.90;;;19.07;66.85;101602.09;5113830;28;20131;-70
2021/08/26 04:25:07;;;;;;;18.95;6.53;;;18.80;99.90;;;18.91;66.98;101579.31;5113284;28;20096;-70
2021/08/26 04:27:36;;;;;;;20.90;7.20;;;18.70;99.90;;;18.90;66.83;101578.41;5113226;28;20050;-70
2021/08/26 04:30:06;;;;;;;14.95;6.30;;;18.70;99.90;;;19.12;66.62;101589.44;5113300;28;20089;-70
2021/08/26 04:32:34;;;;;;;14.90;6.20;;;18.80;99.90;;;19.00;67.20;101588.88;5113316;28;20044;-70
2021/08/26 04:35:05;;;;;;;21.27;6.95;;;18.70;99.90;;;19.05;66.99;101592.34;5113235;28;20040;-70
2021/08/26 04:37:33;;;;;;;;;;;18.70;99.90;;;19.07;66.68;101591.34;5113646;28;20051;-70
2021/08/26 04:40:01;;;;;;;14.25;6.20;;;18.70;99.90;;;19.10;65.98;101591.28;5113548;28;19920;-70
2021/08/26 04:42:29;;;;;;;18.42;6.15;;;18.80;99.90;;;19.08;65.25;101597.59;5113654;28;20052;-70
2021/08/26 04:44:58;;;;;;;17.17;6.13;;;18.80;99.90;;;19.17;65.49;101591.97;5113162;28;20074;-70
2021/08/26 04:47:26;;;;;;;16.85;6.53;;;18.90;99.90;;;19.23;65.58;101589.13;5113891;28;20075;-69
2021/08/26 04:49:54;;;;;;;16.30;5.90;;;18.90;99.90;;;19.32;65.77;101588.84;5117147;28;20075;-70
2021/08/26 04:52:25;;;;;;;14.73;5.85;;;19.00;99.90;;;19.35;65.28;101583.44;5117424;28;20044;-70
2021/08/26 04:54:53;;;;;;;17.63;6.22;;;19.10;99.90;;;19.22;66.13;101590.06;5117386;28;20085;-70
2021/08/26 04:57:21;;;;;;;17.10;6.30;;;18.90;99.90;;;19.40;66.28;101601.16;5117267;28;20120;-70
2021/08/26 04:59:49;;;;;;;18.08;6.35;;;19.00;99.90;;;19.34;66.56;101587.03;5116976;28;20040;-70
2021/08/26 05:02:18;;;;;;;14.95;5.82;;;19.10;99.90;;;19.40;66.35;101590.44;5116816;28;20062;-70
2021/08/26 05:04:47;;;;;;;14.95;6.18;;;19.10;99.90;;;19.42;66.76;101585.00;5116871;28;20494;-70
2021/08/26 05:07:15;;;;;;;16.73;6.22;;;19.10;99.90;;;19.47;67.12;101581.25;5098645;28;20104;-70
2021/08/26 05:09:45;;;;;;;17.48;5.88;;;19.10;99.90;;;19.46;66.79;101581.31;5116631;28;20126;-70
2021/08/26 05:12:13;;;;;;;14.25;5.75;;;19.20;99.90;;;19.50;67.17;101585.66;5117297;28;20541;-70
2021/08/26 05:14:42;;;;;;;18.15;5.80;;;19.10;99.90;;;19.18;66.84;101589.25;5117179;28;20551;-70
2021/08/26 05:17:10;;;;;;;23.13;6.00;;;18.90;99.90;;;19.28;66.62;101590.75;5116682;28;20486;-70
2021/08/26 05:19:39;;;;;;;14.65;5.43;;;18.90;99.90;;;19.26;66.56;101592.59;5117089;28;20044;-70
2021/08/26 05:22:07;;;;;;;16.90;5.70;;;18.90;99.90;;;19.30;65.74;101596.09;5116508;28;20035;-70
2021/08/26 05:24:36;;;;;;;21.77;6.00;;;18.90;99.90;;;19.26;64.85;101591.75;5116740;28;20101;-69
2021/08/26 05:27:05;;;;;;;13.38;5.55;;;18.90;99.90;;;19.32;64.52;101599.59;5116687;28;20123;-69
2021/08/26 05:29:34;;;;;;;15.88;5.82;;;19.00;99.90;;;19.22;64.45;101600.78;5116635;28;20039;-69
2021/08/26 05:32:03;;;;;;;15.30;5.60;;;18.90;99.90;;;19.19;64.88;101596.38;5116812;28;20039;-69
2021/08/26 05:34:31;;;;;;;15.93;5.53;;;18.90;99.90;;;19.27;65.00;101586.31;5098256;28;20093;-69
2021/08/26 05:37:00;;;;;;;16.80;5.75;;;18.90;99.90;;;19.23;65.04;101581.97;5098232;28;20097;-70
2021/08/26 05:39:28;;;;;;;16.52;5.82;;;18.90;99.90;;;19.19;65.44;101582.97;5116005;28;20119;-70
2021/08/26 05:41:56;;;;;;;16.35;5.85;;;18.90;99.90;;;19.28;65.48;101587.22;5116356;28;20051;-69
2021/08/26 05:44:26;;;;;;;15.32;5.68;;;18.90;99.90;;;18.89;66.39;101581.16;5116460;28;20055;-70
2021/08/26 05:46:56;;;;;;;17.03;6.13;;;18.70;99.90;;;18.80;66.51;101576.00;5115932;28;20077;-70
2021/08/26 05:49:25;;;;;;;15.27;5.80;;;18.60;99.90;;;18.93;66.55;101583.69;5116065;28;20047;-69
2021/08/26 05:51:56;;;;;;;16.35;5.47;;;18.60;99.90;;;18.95;66.42;101554.13;5097812;28;20134;-70
2021/08/26 05:54:24;;;;;;;16.23;5.88;;;18.70;99.90;;;18.91;65.98;101577.47;5097902;28;20082;-70
2021/08/26 05:56:53;;;;;;;17.30;6.40;;;18.70;99.90;;;19.02;66.45;101587.94;5115820;28;20040;-69
2021/08/26 05:59:21;;;;;;;18.13;5.82;;;18.70;99.90;;;18.97;66.22;101589.84;5097901;28;20052;-70
2021/08/26 06:01:51;;;;;;;14.77;6.00;;;18.70;99.90;;;18.76;67.24;101588.63;5115638;28;20126;-70
2021/08/26 06:04:20;;;;;;;15.05;5.35;;;18.50;99.90;;;17.94;67.65;101466.59;5116024;28;20051;-70
2021/08/26 06:06:48;;;;;;;18.08;6.30;;;18.30;99.90;;;17.71;67.73;101418.13;5115960;28;20042;-70
2021/08/26 06:09:16;;;;;;;21.05;5.75;;;18.30;99.90;;;18.66;67.52;101583.56;5115556;28;20188;-69
2021/08/26 06:11:45;;;;;;;16.42;5.28;;;18.40;99.90;;;18.44;68.40;101585.03;5115849;28;20067;-69
2021/08/26 06:14:13;;;;;;;16.33;5.97;;;18.20;99.90;;;18.64;68.37;101588.94;5115568;28;20142;-69
2021/08/26 06:16:42;;;;;;;13.43;5.00;;;18.30;99.90;;;18.73;68.50;101588.72;5097511;28;20406;-70
2021/08/26 06:19:12;;;;;;;13.35;5.25;;;18.40;99.90;;;18.68;69.05;101589.72;5115467;28;20521;-69
2021/08/26 06:21:41;;;;;;;19.13;6.13;;;18.40;99.90;;;18.89;68.93;101592.72;5115946;28;20068;-70
2021/08/26 06:24:09;;;;;;;14.80;5.35;;;18.50;99.90;;;18.90;68.23;101591.81;5115325;28;20040;-70
2021/08/26 06:26:38;;;;;;;13.48;5.20;;;18.60;99.90;;;18.92;68.17;101583.72;5115479;28;20051;-70
2021/08/26 06:29:07;;;;;;;13.93;5.38;;;18.60;99.90;;;18.53;69.08;101593.69;5115305;28;20043;-69
2021/08/26 06:31:35;;;;;;;17.65;4.85;;;18.50;99.90;;;18.77;68.99;101587.72;5115612;28;20071;-69
2021/08/26 06:34:04;;;;;;;13.00;4.70;;;18.50;99.90;;;18.82;69.11;101595.63;5114959;28;20054;-70
2021/08/26 06:36:33;;;;;;;11.07;4.38;;;18.50;99.90;;;18.57;69.49;101590.03;5115516;28;20069;-69
2021/08/26 06:39:02;;;;;;;13.80;4.68;;;18.30;99.90;;;18.65;69.35;101581.78;5115337;28;20130;-69
2021/08/26 06:41:30;;;;;;;15.77;5.30;;;18.40;99.90;;;18.77;68.79;101589.50;5096923;28;20409;-70
2021/08/26 06:43:58;;;;;;;22.17;5.88;;;18.50;99.90;;;18.65;70.25;101582.69;5115189;28;20131;-70
2021/08/26 06:46:27;;;;;;;17.10;4.90;;;18.40;99.90;;;18.66;70.11;101583.56;5114741;28;20039;-70
2021/08/26 06:48:56;;;;;;;17.63;5.95;;;18.40;99.90;;;18.69;70.03;101584.34;5114744;28;20071;-70
2021/08/26 06:51:24;;;;;;;13.07;5.07;;;18.40;99.90;;;18.91;69.86;101577.47;5114340;28;20135;-74
2021/08/26 06:53:54;;;;;;;17.10;5.38;;;18.50;99.90;;;18.64;69.56;101580.03;5114702;28;20043;-73
2021/08/26 06:56:23;;;;;;;16.67;6.10;;;18.50;99.90;;;18.52;68.95;101549.09;5114981;28;20035;-73
2021/08/26 06:58:51;;;;;;;12.90;5.32;;;18.40;99.90;;;18.86;68.23;101597.31;5115917;28;20043;-72
2021/08/26 07:01:19;;;;;;;12.18;5.03;;;18.50;99.90;;;19.07;68.35;101610.13;5114826;28;20039;-73
2021/08/26 07:03:50;;;;;;;20.90;6.18;;;18.70;99.90;;;19.03;67.80;101599.53;5114430;28;20127;-73
2021/08/26 07:06:19;;;;;;;12.40;4.82;;;18.70;99.90;;;19.12;68.26;101613.59;5115217;28;20040;-74
2021/08/26 07:08:47;;;;;;;14.43;5.30;;;18.80;99.90;;;19.09;67.49;101600.25;5114371;28;20077;-72
2021/08/26 07:11:17;;;;;;;12.88;5.00;;;18.80;99.90;;;18.97;66.69;101583.63;5113879;28;20072;-72
2021/08/26 07:13:45;;;;;;;12.90;5.00;;;18.80;99.90;;;19.02;66.74;101597.75;5114409;28;20490;-72
2021/08/26 07:16:14;;;;;;;12.55;5.13;;;18.90;99.90;;;19.15;66.85;101602.75;5114111;28;20502;-72
2021/08/26 07:18:43;;;;;;;13.07;5.13;;;18.80;99.90;;;19.07;66.73;101599.41;5113893;28;20466;-72
2021/08/26 07:21:11;;;;;;;11.90;5.13;;;18.80;99.90;;;19.14;66.73;101609.06;5114361;28;20119;-72
2021/08/26 07:23:40;;;;;;;12.85;5.40;;;18.90;99.90;;;18.87;66.59;101530.22;5114598;28;20047;-68
2021/08/26 07:26:08;;;;;;;14.52;5.78;;;19.00;99.90;;;19.14;67.14;101601.00;5114126;28;20131;-71
2021/08/26 07:28:38;;;;;;;16.67;5.55;;;18.90;99.90;;;18.91;67.73;101598.94;5114133;28;20066;-71
2021/08/26 07:31:06;;;;;;;14.30;5.07;;;18.70;99.90;;;19.08;67.26;101600.28;5113981;28;20525;-69
2021/08/26 07:33:35;;;;;;;15.50;5.57;;;18.70;99.90;;;18.91;67.33;101579.31;5113971;28;20051;-70
2021/08/26 07:36:04;;;;;;;18.23;5.35;;;18.70;99.90;;;19.20;67.47;101610.69;5114265;28;20074;-70
2021/08/26 07:38:32;;;;;;;10.88;4.82;;;18.80;99.90;;;19.25;67.48;101596.22;5114208;28;20147;-70
2021/08/26 07:41:01;;;;;;;12.32;5.30;;;19.00;99.90;;;19.33;67.67;101620.19;5114086;28;20039;-70
2021/08/26 07:43:36;;;;;;;12.10;4.07;;;19.00;99.90;;;19.36;68.26;101626.31;5113686;28;20134;-70
2021/08/26 07:46:07;;;;;;;11.75;4.65;;;19.10;99.90;;;19.37;69.31;101628.09;5113815;28;20043;-72
2021/08/26 07:48:35;;;;;;;8.30;4.03;;;19.10;99.90;;;19.32;70.71;101621.97;5113719;28;20066;-71
2021/08/26 07:51:04;;;;;;;8.52;3.72;;;19.10;99.90;;;19.28;70.95;101601.47;5113571;28;20134;-69
2021/08/26 07:53:34;;;;;;;9.25;3.97;;;19.10;99.90;;;19.29;71.05;101613.09;5095439;28;20047;-70
2021/08/26 07:56:03;;;;;;;6.80;3.87;;;19.00;99.90;;;19.18;71.49;101605.34;5113586;28;20043;-70
2021/08/26 07:58:32;;;;;;;11.07;3.90;;;18.90;99.90;;;19.32;70.65;101602.25;5095185;28;20058;-70
2021/08/26 08:01:02;;;;;;;8.97;3.83;;;19.00;99.90;;;19.53;70.44;101602.56;5113283;28;20051;-72
2021/08/26 08:03:32;;;;;;;8.60;3.97;;;19.20;99.90;;;19.79;70.57;101602.69;5113276;28;20050;-71
2021/08/26 08:06:02;;;;;;;8.43;4.38;;;19.50;99.90;;;19.89;69.58;101597.00;5113412;28;20551;-72
2021/08/26 08:08:31;;;;;;;10.35;3.95;;;19.70;99.90;;;19.83;68.57;101573.91;5113128;28;20040;-75
2021/08/26 08:10:59;;;;;;;8.75;4.00;;;19.70;99.90;;;19.99;68.21;101609.22;5113733;28;20044;-72
2021/08/26 08:13:32;;;;;;;11.35;4.40;;;19.70;99.90;;;19.98;67.85;101616.41;5113696;28;20044;-72
2021/08/26 08:16:03;;;;;;;5.75;3.38;;;19.70;99.90;;;20.04;67.93;101604.59;5113616;28;20088;-72
2021/08/26 08:18:34;;;;;;;8.40;4.05;;;19.80;99.90;;;20.06;67.59;101602.72;5113378;28;20040;-77
2021/08/26 08:21:02;;;;;;;9.10;3.92;;;19.70;99.90;;;20.11;67.79;101603.47;5113020;28;20039;-73
2021/08/26 08:23:31;;;;;;;9.40;3.70;;;19.80;99.90;;;20.25;67.75;101594.06;5115650;28;20039;-73
2021/08/26 08:26:00;;;;;;;10.15;4.35;;;19.90;99.90;;;20.58;67.42;101592.94;5117002;28;20444;-73
2021/08/26 08:28:29;;;;;;;10.38;4.00;;;20.20;99.90;;;20.70;66.68;101559.38;5116595;28;20035;-74
2021/08/26 08:30:57;;;;;;;7.47;4.07;;;20.50;99.90;;;21.23;66.49;101601.44;5116915;28;20040;-72
2021/08/26 08:33:26;;;;;;;7.88;3.80;;;20.90;99.90;;;21.09;64.77;101532.91;5099157;28;20039;-86
2021/08/26 08:35:55;;;;;;;7.63;3.60;;;21.20;99.90;;;21.50;62.81;101603.06;5116971;28;20075;-74
2021/08/26 08:38:24;;;;;;;10.83;4.50;;;21.30;99.90;;;20.67;63.25;101571.13;5116876;28;20047;-75
2021/08/26 08:40:52;;;;;;;8.60;4.25;;;20.80;99.90;;;20.43;65.35;101582.72;5117268;28;20515;-76
2021/08/26 08:43:21;;;;;;;13.93;4.80;;;20.20;99.90;;;20.51;64.46;101588.72;5116892;28;20097;-76
2021/08/26 08:45:49;;;;;;;11.60;4.60;;;20.30;99.90;;;20.55;64.21;101600.25;5117069;28;20474;-73
2021/08/26 08:48:18;;;;;;;16.25;4.38;;;20.30;99.90;;;20.31;65.84;101599.25;5117773;28;20127;-82
2021/08/26 08:50:47;;;;;;;13.60;4.68;;;20.10;99.90;;;20.35;66.69;101602.72;5117086;28;20094;-73
2021/08/26 08:53:18;;;;;;;9.77;4.20;;;20.10;99.90;;;20.32;66.56;101606.41;5117131;28;20036;-73
2021/08/26 08:55:48;;;;;;;7.40;3.85;;;20.00;99.90;;;20.36;66.55;101601.78;5117338;28;20126;-72
2021/08/26 08:58:16;;;;;;;10.07;4.60;;;20.10;99.90;;;20.47;67.09;101605.88;5117129;28;20097;-74
2021/08/26 09:00:45;;;;;;;10.50;4.38;;;20.20;99.90;;;20.39;67.45;101599.88;5117544;28;20126;-72
2021/08/26 09:03:13;;;;;;;10.68;4.32;;;20.10;99.90;;;20.52;66.50;101593.16;5098882;28;20504;-71
2021/08/26 09:05:55;;;;;;;13.50;5.20;;;20.30;99.90;;;20.55;66.94;101597.56;5116872;28;20115;-72
2021/08/26 09:08:29;;;;;;;12.00;5.03;;;20.30;99.90;;;20.96;67.39;101599.72;5117026;28;20051;-70
2021/08/26 09:11:12;;;;;;;15.52;5.25;;;20.60;99.90;;;20.81;64.65;101602.06;5116743;28;20036;-64
2021/08/26 09:13:41;;;;;;;14.45;5.40;;;20.60;99.90;;;20.75;64.07;101603.13;5116747;28;20120;-65
2021/08/26 09:16:11;;;;;;;11.75;4.75;;;20.50;99.90;;;20.77;63.74;101595.03;5116996;28;20055;-66
2021/08/26 09:18:40;;;;;;;12.85;5.05;;;20.60;99.90;;;20.80;63.98;101597.59;5117126;28;20044;-68
2021/08/26 09:21:11;;;;;;;9.93;4.28;;;20.60;99.90;;;20.74;63.84;101578.97;5116482;28;20051;-67
2021/08/26 09:23:56;;;;;;;9.95;4.25;;;20.60;99.90;;;20.66;63.02;101592.69;5116593;28;20039;-67
2021/08/26 09:26:26;;;;;;;11.90;4.20;;;20.50;99.90;;;20.80;63.06;101587.72;5116420;28;20105;-66
2021/08/26 09:29:01;;;;;;;10.15;5.43;;;20.50;99.90;;;20.57;62.59;101585.84;5116433;28;20055;-68
2021/08/26 09:31:32;;;;;;;9.18;4.68;;;20.40;99.90;;;20.60;62.92;101558.81;5116317;28;20043;-68
2021/08/26 09:34:03;;;;;;;11.88;4.45;;;20.50;99.90;;;20.83;62.22;101592.97;5116169;28;20040;-68
2021/08/26 09:36:36;;;;;;;11.02;4.53;;;20.60;99.90;;;20.63;63.28;101595.50;5116123;28;20089;-68
2021/08/26 09:39:07;;;;;;;9.00;4.55;;;20.40;99.90;;;20.74;63.13;101597.78;5116147;28;20047;-68
2021/08/26 09:41:46;;;;;;;9.98;4.50;;;20.50;99.90;;;20.45;62.80;101580.88;5116108;28;20116;-67
2021/08/26 09:44:17;;;;;;;14.27;5.03;;;20.30;99.90;;;20.60;62.90;101588.41;5116252;28;20044;-68
2021/08/26 09:46:49;;;;;;;14.93;5.13;;;20.30;99.90;;;20.49;62.62;101585.22;5116359;28;20163;-67
2021/08/26 09:49:19;;;;;;;13.38;5.18;;;20.30;99.90;;;20.48;63.44;101594.19;5098287;28;20108;-67
2021/08/26 09:52:03;;;;;;;;;;;20.30;99.90;;;20.57;63.62;101580.47;5098278;28;20096;-67
2021/08/26 09:54:37;;;;;;;13.82;5.00;;;20.30;99.90;;;20.55;64.63;101586.81;5116037;28;19923;-68
2021/08/26 09:57:08;;;;;;;15.77;5.13;;;20.30;99.90;;;20.39;64.20;101566.75;5116021;28;20044;-67
2021/08/26 09:59:45;;;;;;;16.58;6.30;;;20.30;99.90;;;20.58;64.18;101584.88;5116406;28;20097;-67
2021/08/26 10:02:14;;;;;;;13.45;5.38;;;20.30;99.90;;;20.50;64.49;101586.06;5097619;28;20051;-68
2021/08/26 10:04:45;;;;;;;12.48;5.55;;;20.30;99.90;;;20.54;62.99;101585.03;5097728;28;20071;-67
2021/08/26 10:07:14;;;;;;;12.50;5.05;;;20.30;99.90;;;20.43;62.97;101585.41;5116252;28;20078;-67
2021/08/26 10:09:45;;;;;;;20.70;5.90;;;20.20;99.90;;;20.12;64.54;101581.03;5115656;28;20039;-68
2021/08/26 10:12:15;;;;;;;13.63;5.68;;;20.00;99.90;;;20.34;64.42;101582.16;5097569;28;20051;-67
2021/08/26 10:14:46;;;;;;;;;;;20.00;99.90;;;20.51;63.59;101580.66;5116032;28;20047;-69
2021/08/26 10:17:16;;;;;;;15.13;5.45;;;20.30;99.90;;;20.58;63.67;101579.50;5115416;28;19920;-68
2021/08/26 10:19:45;;;;;;;17.85;5.82;;;20.30;99.90;;;20.68;63.93;101577.38;5115614;28;20039;-68